createdAt,value
2019-05-06T00:00:27.075Z,3.90
2019-05-06T00:02:56.778Z,3.80
2019-05-06T00:05:26.481Z,3.80
2019-05-06T00:07:56.209Z,3.70
2019-05-06T00:10:34.760Z,3.60
2019-05-06T00:13:04.812Z,3.70
2019-05-06T00:15:34.687Z,3.60
2019-05-06T00:18:04.845Z,3.70
2019-05-06T00:20:35.448Z,3.60
2019-05-06T00:23:24.818Z,3.50
2019-05-06T00:25:58.430Z,3.50
2019-05-06T00:28:29.740Z,3.60
2019-05-06T00:31:10.339Z,3.80
2019-05-06T00:33:34.103Z,3.90
2019-05-06T00:36:04.671Z,4.00
2019-05-06T00:38:35.069Z,4.10
2019-05-06T00:41:06.319Z,4.10
2019-05-06T00:43:36.062Z,4.20
2019-05-06T00:46:05.891Z,4.20
2019-05-06T00:48:35.499Z,4.10
2019-05-06T00:51:05.249Z,4.20
2019-05-06T00:53:36.523Z,4.30
2019-05-06T00:56:06.457Z,4.30
2019-05-06T00:58:36.082Z,4.20
2019-05-06T01:01:06.053Z,4.20
2019-05-06T01:03:35.714Z,4.20
2019-05-06T01:06:05.852Z,4.10
2019-05-06T01:08:35.718Z,4.10
2019-05-06T01:11:07.159Z,4.00
2019-05-06T01:13:43.694Z,3.90
2019-05-06T01:16:15.760Z,3.90
2019-05-06T01:18:45.491Z,3.80
2019-05-06T01:21:15.201Z,3.80
2019-05-06T01:23:46.081Z,3.80
2019-05-06T01:26:16.707Z,3.80
2019-05-06T01:28:46.433Z,3.70
2019-05-06T01:31:16.327Z,3.60
2019-05-06T01:33:46.156Z,3.50
2019-05-06T01:36:16.002Z,3.50
2019-05-06T01:38:53.547Z,3.40
2019-05-06T01:41:28.749Z,3.50
2019-05-06T01:43:58.664Z,3.60
2019-05-06T01:46:28.252Z,3.70
2019-05-06T01:48:58.124Z,3.70
2019-05-06T01:51:27.932Z,3.70
2019-05-06T01:53:57.727Z,3.80
2019-05-06T01:56:27.392Z,3.80
2019-05-06T01:58:57.002Z,3.80
2019-05-06T02:01:26.663Z,3.90
2019-05-06T02:03:56.503Z,4.00
2019-05-06T02:06:26.516Z,4.10
2019-05-06T02:08:56.161Z,4.10
2019-05-06T02:11:25.943Z,4.10
2019-05-06T02:13:55.591Z,4.10
2019-05-06T02:16:25.372Z,4.20
2019-05-06T02:18:55.058Z,4.10
2019-05-06T02:21:27.648Z,4.10
2019-05-06T02:23:59.050Z,4.10
2019-05-06T02:26:28.691Z,4.20
2019-05-06T02:29:00.026Z,4.20
2019-05-06T02:31:46.762Z,4.20
2019-05-06T02:34:26.973Z,4.20
2019-05-06T02:37:06.290Z,4.20
2019-05-06T02:39:35.529Z,4.20
2019-05-06T02:42:07.400Z,4.20
2019-05-06T02:44:37.030Z,4.20
2019-05-06T02:47:17.190Z,4.30
2019-05-06T02:49:48.621Z,4.30
2019-05-06T02:52:18.257Z,4.30
2019-05-06T02:54:48.064Z,4.40
2019-05-06T02:57:17.828Z,4.40
2019-05-06T02:59:47.730Z,4.50
2019-05-06T03:02:35.680Z,4.50
2019-05-06T03:04:48.660Z,4.50
2019-05-06T03:07:18.237Z,4.50
2019-05-06T03:09:47.849Z,4.50
2019-05-06T03:12:17.509Z,4.50
2019-05-06T03:14:47.113Z,4.50
2019-05-06T03:17:16.888Z,4.50
2019-05-06T03:19:48.292Z,4.40
2019-05-06T03:22:24.063Z,4.30
2019-05-06T03:24:55.974Z,4.40
2019-05-06T03:27:26.008Z,4.40
2019-05-06T03:29:55.721Z,4.30
2019-05-06T03:32:30.791Z,4.30
2019-05-06T03:35:22.958Z,4.20
2019-05-06T03:37:27.977Z,4.20
2019-05-06T03:39:57.675Z,4.20
2019-05-06T03:42:27.348Z,4.20
2019-05-06T03:44:58.732Z,4.20
2019-05-06T03:47:30.124Z,4.20
2019-05-06T03:49:59.711Z,4.20
2019-05-06T03:52:33.879Z,4.20
2019-05-06T03:55:04.318Z,4.20
2019-05-06T03:57:35.941Z,4.20
2019-05-06T04:00:15.543Z,4.10
2019-05-06T04:02:43.521Z,4.10
2019-05-06T04:05:13.692Z,4.10
2019-05-06T04:07:45.915Z,4.20
2019-05-06T04:10:16.487Z,4.20
2019-05-06T04:12:46.071Z,4.30
2019-05-06T04:15:16.251Z,4.30
2019-05-06T04:17:47.697Z,4.30
2019-05-06T04:20:25.106Z,4.20
2019-05-06T04:22:59.371Z,4.20
2019-05-06T04:25:38.335Z,4.30
2019-05-06T04:28:12.681Z,4.30
2019-05-06T04:30:42.847Z,4.20
2019-05-06T04:33:17.279Z,4.20
2019-05-06T04:35:44.764Z,4.20
2019-05-06T04:38:14.468Z,4.10
2019-05-06T04:40:44.367Z,4.10
2019-05-06T04:43:14.025Z,4.20
2019-05-06T04:45:43.698Z,4.10
2019-05-06T04:48:14.639Z,4.10
2019-05-06T04:50:44.777Z,4.10
2019-05-06T04:53:14.512Z,4.10
2019-05-06T04:55:44.593Z,4.10
2019-05-06T04:58:14.519Z,4.20
2019-05-06T05:00:44.814Z,4.20
2019-05-06T05:03:14.633Z,4.30
2019-05-06T05:05:45.069Z,4.30
2019-05-06T05:08:15.362Z,4.30
2019-05-06T05:10:46.755Z,4.40
2019-05-06T05:13:23.161Z,4.40
2019-05-06T05:16:09.693Z,4.40
2019-05-06T05:18:42.490Z,4.40
2019-05-06T05:21:12.301Z,4.40
2019-05-06T05:23:42.842Z,4.40
2019-05-06T05:26:12.535Z,4.30
2019-05-06T05:28:42.977Z,4.30
2019-05-06T05:31:12.776Z,4.40
2019-05-06T05:33:42.610Z,4.50
2019-05-06T05:36:12.551Z,4.60
2019-05-06T05:38:43.417Z,4.70
2019-05-06T05:41:13.276Z,4.80
2019-05-06T05:43:48.496Z,4.80
2019-05-06T05:46:18.106Z,4.90
2019-05-06T05:48:58.534Z,4.80
2019-05-06T05:51:28.235Z,4.80
2019-05-06T05:53:57.847Z,4.90
2019-05-06T05:56:27.605Z,5.00
2019-05-06T05:58:57.324Z,5.10
2019-05-06T06:01:27.106Z,5.00
2019-05-06T06:03:57.016Z,5.20
2019-05-06T06:06:26.984Z,5.10
2019-05-06T06:08:56.750Z,5.10
2019-05-06T06:11:43.874Z,5.10
2019-05-06T06:14:30.087Z,5.20
2019-05-06T06:17:12.957Z,5.40
2019-05-06T06:19:45.061Z,5.40
2019-05-06T06:22:16.351Z,5.60
2019-05-06T06:24:46.179Z,5.70
2019-05-06T06:27:15.881Z,5.80
2019-05-06T06:29:47.365Z,5.90
2019-05-06T06:32:18.675Z,6.00
2019-05-06T06:35:07.561Z,6.30
2019-05-06T06:37:42.643Z,6.60
2019-05-06T06:40:14.639Z,6.80
2019-05-06T06:42:46.031Z,6.70
2019-05-06T06:45:16.213Z,6.70
2019-05-06T06:47:46.394Z,6.90
2019-05-06T06:50:16.372Z,7.00
2019-05-06T06:52:46.537Z,7.30
2019-05-06T06:55:18.469Z,7.20
2019-05-06T06:57:55.315Z,7.30
2019-05-06T07:00:36.858Z,7.40
2019-05-06T07:03:12.264Z,7.70
2019-05-06T07:05:52.985Z,7.60
2019-05-06T07:08:34.057Z,7.80
2019-05-06T07:10:54.273Z,7.80
2019-05-06T07:13:24.391Z,8.00
2019-05-06T07:15:54.460Z,7.90
2019-05-06T07:18:24.205Z,7.80
2019-05-06T07:21:07.401Z,7.80
2019-05-06T07:23:37.842Z,7.80
2019-05-06T07:26:07.885Z,7.80
2019-05-06T07:28:37.454Z,8.10
2019-05-06T07:31:18.679Z,8.30
2019-05-06T07:33:38.738Z,8.20
2019-05-06T07:36:08.451Z,8.00
2019-05-06T07:38:39.773Z,8.30
2019-05-06T07:41:20.285Z,8.30
2019-05-06T07:43:57.355Z,8.60
2019-05-06T07:46:37.700Z,8.80
2019-05-06T07:49:07.442Z,8.60
2019-05-06T07:51:37.167Z,8.60
2019-05-06T07:54:06.885Z,8.50
2019-05-06T07:56:36.631Z,8.50
2019-05-06T07:59:09.090Z,8.80
2019-05-06T08:01:43.984Z,8.60
2019-05-06T08:04:14.022Z,8.80
2019-05-06T08:06:43.747Z,8.20
2019-05-06T08:09:13.656Z,8.20
2019-05-06T08:11:43.580Z,8.40
2019-05-06T08:14:13.363Z,8.50
2019-05-06T08:16:44.896Z,8.50
2019-05-06T08:19:14.609Z,8.50
2019-05-06T08:21:45.822Z,8.80
2019-05-06T08:24:15.541Z,9.10
2019-05-06T08:26:45.209Z,9.10
2019-05-06T08:29:16.021Z,9.50
2019-05-06T08:31:45.688Z,9.50
2019-05-06T08:34:15.743Z,9.80
2019-05-06T08:36:45.109Z,10.40
2019-05-06T08:39:15.016Z,10.10
2019-05-06T08:41:44.884Z,10.80
2019-05-06T08:44:14.666Z,10.50
2019-05-06T08:46:44.378Z,10.40
2019-05-06T08:49:14.104Z,10.10
2019-05-06T08:51:48.384Z,9.90
2019-05-06T08:54:22.975Z,9.80
2019-05-06T08:56:52.636Z,9.80
2019-05-06T08:59:24.032Z,9.60
2019-05-06T09:01:55.384Z,9.70
2019-05-06T09:04:24.991Z,9.80
2019-05-06T09:06:54.721Z,9.60
2019-05-06T09:09:24.313Z,9.40
2019-05-06T09:11:54.113Z,9.60
2019-05-06T09:14:23.980Z,9.80
2019-05-06T09:16:54.276Z,10.10
2019-05-06T09:19:24.163Z,10.20
2019-05-06T09:21:53.975Z,10.40
2019-05-06T09:24:23.688Z,10.40
2019-05-06T09:26:54.902Z,10.60
2019-05-06T09:29:32.708Z,10.70
2019-05-06T09:32:04.209Z,11.00
2019-05-06T09:34:38.577Z,11.20
2019-05-06T09:37:13.721Z,11.40
2019-05-06T09:39:45.306Z,11.20
2019-05-06T09:42:15.433Z,11.30
2019-05-06T09:44:50.234Z,10.90
2019-05-06T09:47:36.342Z,10.70
2019-05-06T09:50:12.758Z,10.70
2019-05-06T09:52:42.660Z,10.60
2019-05-06T09:55:12.964Z,11.30
2019-05-06T09:57:59.326Z,11.60
2019-05-06T10:00:32.998Z,11.90
2019-05-06T10:03:03.311Z,11.70
2019-05-06T10:05:33.222Z,11.20
2019-05-06T10:08:03.487Z,11.10
2019-05-06T10:10:33.315Z,11.40
2019-05-06T10:13:03.166Z,12.00
2019-05-06T10:15:32.889Z,12.80
2019-05-06T10:18:09.101Z,12.80
2019-05-06T10:20:42.845Z,11.70
2019-05-06T10:23:13.743Z,11.90
2019-05-06T10:25:44.902Z,11.80
2019-05-06T10:28:17.188Z,12.10
2019-05-06T10:30:46.856Z,12.10
2019-05-06T10:33:18.175Z,11.30
2019-05-06T10:35:48.129Z,12.10
2019-05-06T10:38:52.738Z,12.70
2019-05-06T10:41:26.668Z,13.10
2019-05-06T10:44:26.363Z,13.10
2019-05-06T10:46:56.038Z,12.90
2019-05-06T10:49:25.667Z,13.40
2019-05-06T10:51:57.514Z,13.00
2019-05-06T10:54:27.298Z,12.40
2019-05-06T10:57:04.375Z,12.10
2019-05-06T10:59:33.956Z,11.90
2019-05-06T11:02:23.520Z,11.90
2019-05-06T11:04:53.405Z,12.10
2019-05-06T11:07:31.424Z,12.50
2019-05-06T11:09:54.431Z,12.70
2019-05-06T11:12:24.165Z,12.60
2019-05-06T11:14:55.721Z,12.40
2019-05-06T11:17:25.386Z,12.00
2019-05-06T11:19:54.968Z,12.10
2019-05-06T11:22:24.909Z,12.50
2019-05-06T11:24:54.995Z,12.80
2019-05-06T11:27:31.844Z,13.30
2019-05-06T11:29:57.733Z,13.30
2019-05-06T11:32:33.026Z,13.70
2019-05-06T11:35:07.518Z,13.30
2019-05-06T11:37:51.033Z,14.20
2019-05-06T11:40:19.362Z,14.60
2019-05-06T11:42:49.323Z,14.30
2019-05-06T11:45:19.023Z,13.60
2019-05-06T11:47:48.605Z,13.30
2019-05-06T11:50:18.470Z,13.20
2019-05-06T11:52:48.219Z,13.50
2019-05-06T11:55:28.801Z,13.00
2019-05-06T11:57:49.718Z,12.60
2019-05-06T12:00:23.808Z,12.60
2019-05-06T12:02:53.372Z,12.70
2019-05-06T12:05:23.152Z,12.40
2019-05-06T12:08:01.754Z,12.40
2019-05-06T12:10:24.421Z,12.30
2019-05-06T12:12:54.190Z,12.60
2019-05-06T12:15:23.830Z,12.90
2019-05-06T12:17:53.638Z,13.00
2019-05-06T12:20:23.341Z,12.60
2019-05-06T12:22:53.009Z,12.90
2019-05-06T12:25:23.796Z,12.90
2019-05-06T12:27:53.647Z,12.80
2019-05-06T12:30:24.905Z,13.00
2019-05-06T12:33:03.340Z,13.00
2019-05-06T12:35:34.662Z,13.20
2019-05-06T12:38:23.860Z,13.20
2019-05-06T12:40:37.383Z,13.40
2019-05-06T12:43:24.768Z,13.80
2019-05-06T12:46:03.460Z,13.40
2019-05-06T12:48:34.909Z,13.40
2019-05-06T12:51:04.622Z,13.30
2019-05-06T12:53:34.400Z,13.20
2019-05-06T12:56:04.103Z,13.10
2019-05-06T12:58:33.857Z,12.70
2019-05-06T13:01:05.489Z,12.90
2019-05-06T13:03:35.372Z,13.10
2019-05-06T13:06:08.120Z,12.70
2019-05-06T13:08:53.951Z,12.70
2019-05-06T13:11:08.376Z,12.80
2019-05-06T13:13:52.631Z,13.00
2019-05-06T13:16:09.723Z,13.30
2019-05-06T13:18:39.408Z,13.20
2019-05-06T13:21:09.099Z,13.00
2019-05-06T13:23:55.385Z,13.00
2019-05-06T13:26:25.476Z,12.90
2019-05-06T13:28:56.761Z,12.70
2019-05-06T13:31:26.313Z,12.80
2019-05-06T13:33:57.784Z,12.70
2019-05-06T13:36:27.613Z,12.50
2019-05-06T13:39:10.697Z,12.20
2019-05-06T13:41:29.027Z,11.80
2019-05-06T13:44:02.486Z,11.70
2019-05-06T13:46:33.557Z,11.70
2019-05-06T13:49:03.327Z,11.50
2019-05-06T13:51:37.335Z,11.40
2019-05-06T13:54:07.076Z,11.10
2019-05-06T13:56:36.714Z,11.20
2019-05-06T13:59:06.544Z,11.20
2019-05-06T14:01:43.868Z,11.20
2019-05-06T14:04:15.058Z,11.30
2019-05-06T14:06:44.705Z,11.30
2019-05-06T14:09:28.357Z,11.50
2019-05-06T14:11:45.720Z,11.90
2019-05-06T14:14:15.264Z,11.90
2019-05-06T14:16:45.086Z,11.90
2019-05-06T14:19:14.649Z,12.00
2019-05-06T14:21:44.278Z,12.00
2019-05-06T14:24:17.307Z,11.90
2019-05-06T14:26:48.048Z,12.10
2019-05-06T14:29:24.996Z,12.20
2019-05-06T14:31:56.377Z,12.20
2019-05-06T14:34:26.090Z,12.00
2019-05-06T14:36:55.667Z,12.00
2019-05-06T14:39:46.287Z,12.30
2019-05-06T14:41:58.726Z,12.70
2019-05-06T14:44:28.420Z,12.80
2019-05-06T14:46:57.780Z,13.10
2019-05-06T14:49:27.753Z,13.20
2019-05-06T14:51:57.419Z,13.00
2019-05-06T14:54:27.179Z,12.40
2019-05-06T14:57:02.612Z,12.30
2019-05-06T14:59:33.005Z,12.00
2019-05-06T15:02:02.786Z,11.90
2019-05-06T15:04:32.899Z,12.00
2019-05-06T15:07:02.928Z,11.70
2019-05-06T15:09:33.257Z,11.70
2019-05-06T15:12:02.948Z,11.80
2019-05-06T15:14:33.229Z,11.90
2019-05-06T15:17:03.058Z,11.80
2019-05-06T15:19:33.129Z,11.70
2019-05-06T15:22:02.915Z,11.60
2019-05-06T15:24:32.612Z,11.40
2019-05-06T15:27:02.798Z,11.40
2019-05-06T15:29:32.812Z,11.50
2019-05-06T15:32:09.996Z,11.30
2019-05-06T15:34:53.815Z,11.20
2019-05-06T15:37:25.963Z,11.20
2019-05-06T15:39:55.730Z,11.30
2019-05-06T15:42:25.379Z,11.30
2019-05-06T15:44:55.328Z,11.30
2019-05-06T15:47:25.140Z,11.40
2019-05-06T15:49:54.819Z,11.30
2019-05-06T15:52:24.444Z,11.30
2019-05-06T15:54:54.053Z,11.30
2019-05-06T15:57:23.718Z,11.40
2019-05-06T15:59:53.556Z,11.10
2019-05-06T16:02:23.526Z,11.20
2019-05-06T16:04:53.287Z,10.90
2019-05-06T16:07:26.068Z,10.70
2019-05-06T16:09:55.398Z,10.50
2019-05-06T16:12:25.239Z,10.50
2019-05-06T16:14:54.905Z,10.50
2019-05-06T16:17:24.672Z,10.40
2019-05-06T16:19:54.487Z,10.60
2019-05-06T16:22:24.195Z,10.70
2019-05-06T16:24:55.446Z,10.60
2019-05-06T16:27:25.128Z,10.50
2019-05-06T16:29:54.729Z,10.60
2019-05-06T16:32:24.372Z,10.50
2019-05-06T16:34:54.088Z,10.60
2019-05-06T16:37:23.775Z,10.30
2019-05-06T16:39:54.652Z,10.30
2019-05-06T16:42:24.846Z,10.10
2019-05-06T16:44:54.743Z,9.70
2019-05-06T16:47:37.684Z,9.20
2019-05-06T16:50:13.210Z,8.90
2019-05-06T16:52:45.430Z,8.60
2019-05-06T16:55:17.451Z,8.30
2019-05-06T16:57:52.468Z,8.20
2019-05-06T17:00:27.407Z,8.00
2019-05-06T17:03:07.754Z,8.00
2019-05-06T17:05:42.460Z,7.90
2019-05-06T17:08:12.420Z,7.90
2019-05-06T17:10:43.295Z,7.70
2019-05-06T17:13:12.956Z,7.50
2019-05-06T17:15:43.029Z,7.40
2019-05-06T17:18:12.704Z,7.40
2019-05-06T17:20:42.805Z,7.30
2019-05-06T17:23:13.185Z,7.30
2019-05-06T17:25:43.213Z,7.40
2019-05-06T17:28:14.539Z,7.40
2019-05-06T17:30:46.122Z,7.50
2019-05-06T17:33:33.597Z,7.50
2019-05-06T17:36:04.315Z,7.50
2019-05-06T17:38:38.627Z,7.50
2019-05-06T17:41:08.494Z,7.60
2019-05-06T17:43:40.893Z,7.60
2019-05-06T17:46:12.571Z,7.70
2019-05-06T17:48:59.706Z,7.80
2019-05-06T17:51:39.528Z,7.80
2019-05-06T17:54:09.317Z,7.90
2019-05-06T17:56:39.350Z,8.00
2019-05-06T17:59:09.154Z,8.00
2019-05-06T18:01:46.228Z,8.10
2019-05-06T18:04:15.990Z,8.10
2019-05-06T18:06:45.936Z,8.10
2019-05-06T18:09:15.802Z,8.10
2019-05-06T18:11:57.866Z,8.10
2019-05-06T18:14:17.087Z,8.10
2019-05-06T18:16:46.925Z,8.10
2019-05-06T18:19:16.565Z,8.00
2019-05-06T18:21:46.660Z,8.00
2019-05-06T18:24:16.331Z,8.00
2019-05-06T18:26:46.204Z,7.90
2019-05-06T18:29:16.377Z,7.90
2019-05-06T18:31:46.508Z,8.00
2019-05-06T18:34:16.306Z,8.00
2019-05-06T18:36:47.951Z,7.90
2019-05-06T18:39:18.090Z,7.90
2019-05-06T18:41:48.353Z,7.90
2019-05-06T18:44:18.115Z,7.80
2019-05-06T18:46:48.404Z,7.90
2019-05-06T18:49:18.179Z,7.90
2019-05-06T18:51:51.255Z,7.80
2019-05-06T18:54:21.933Z,7.80
2019-05-06T18:56:52.175Z,7.80
2019-05-06T18:59:23.106Z,7.70
2019-05-06T19:01:53.841Z,7.70
2019-05-06T19:04:41.897Z,7.70
2019-05-06T19:07:16.226Z,7.60
2019-05-06T19:09:45.027Z,7.60
2019-05-06T19:12:28.991Z,7.60
2019-05-06T19:14:46.654Z,7.60
2019-05-06T19:17:16.486Z,7.50
2019-05-06T19:19:46.565Z,7.40
2019-05-06T19:22:16.346Z,7.50
2019-05-06T19:24:46.229Z,7.40
2019-05-06T19:27:16.150Z,7.50
2019-05-06T19:29:45.886Z,7.50
2019-05-06T19:32:15.704Z,7.50
2019-05-06T19:34:45.437Z,7.40
2019-05-06T19:37:15.346Z,7.50
2019-05-06T19:39:45.255Z,7.50
2019-05-06T19:42:15.214Z,7.50
2019-05-06T19:44:45.509Z,7.50
2019-05-06T19:47:15.790Z,7.50
2019-05-06T19:49:45.628Z,7.70
2019-05-06T19:52:15.488Z,7.50
2019-05-06T19:54:45.320Z,7.50
2019-05-06T19:57:15.903Z,7.50
2019-05-06T19:59:46.068Z,7.60
2019-05-06T20:02:16.093Z,7.50
2019-05-06T20:04:47.545Z,7.60
2019-05-06T20:07:18.956Z,7.60
2019-05-06T20:09:56.558Z,7.50
2019-05-06T20:12:32.743Z,7.50
2019-05-06T20:15:20.426Z,7.40
2019-05-06T20:17:52.069Z,7.30
2019-05-06T20:20:22.844Z,7.30
2019-05-06T20:22:53.234Z,7.30
2019-05-06T20:25:23.358Z,7.20
2019-05-06T20:27:53.430Z,7.20
2019-05-06T20:30:23.298Z,7.10
2019-05-06T20:32:54.145Z,7.00
2019-05-06T20:35:23.828Z,6.90
2019-05-06T20:37:54.135Z,6.80
2019-05-06T20:40:24.023Z,6.80
2019-05-06T20:42:54.196Z,6.80
2019-05-06T20:45:24.066Z,6.70
2019-05-06T20:47:54.165Z,6.70
2019-05-06T20:50:24.117Z,6.50
2019-05-06T20:52:54.278Z,6.40
2019-05-06T20:55:24.347Z,6.40
2019-05-06T20:57:54.416Z,6.40
2019-05-06T21:00:24.302Z,6.30
2019-05-06T21:02:54.577Z,6.20
2019-05-06T21:05:24.602Z,6.20
2019-05-06T21:07:57.142Z,6.20
2019-05-06T21:10:26.997Z,6.20
2019-05-06T21:12:57.043Z,6.20
2019-05-06T21:15:26.817Z,6.20
2019-05-06T21:17:56.480Z,6.10
2019-05-06T21:20:26.443Z,6.10
2019-05-06T21:22:56.662Z,6.20
2019-05-06T21:25:26.619Z,6.20
2019-05-06T21:27:56.823Z,6.20
2019-05-06T21:30:26.857Z,6.20
2019-05-06T21:32:57.263Z,6.20
2019-05-06T21:35:26.926Z,6.20
2019-05-06T21:37:56.877Z,6.20
2019-05-06T21:40:26.622Z,6.10
2019-05-06T21:42:56.705Z,6.20
2019-05-06T21:45:26.813Z,6.20
2019-05-06T21:47:57.019Z,6.30
2019-05-06T21:50:26.775Z,6.20
2019-05-06T21:52:57.005Z,6.30
2019-05-06T21:55:26.970Z,6.20
2019-05-06T21:57:56.759Z,6.10
2019-05-06T22:00:44.380Z,6.10
2019-05-06T22:03:14.340Z,6.10
2019-05-06T22:05:44.033Z,6.10
2019-05-06T22:08:14.079Z,6.10
2019-05-06T22:10:43.849Z,6.10
2019-05-06T22:13:14.666Z,6.10
2019-05-06T22:15:44.584Z,6.10
2019-05-06T22:18:14.502Z,6.10
2019-05-06T22:21:02.937Z,6.10
2019-05-06T22:23:50.083Z,6.10
2019-05-06T22:26:22.814Z,6.10
2019-05-06T22:28:52.484Z,6.10
2019-05-06T22:31:24.329Z,6.10
2019-05-06T22:33:54.543Z,6.10
2019-05-06T22:36:24.343Z,6.20
2019-05-06T22:38:54.444Z,6.10
2019-05-06T22:41:25.406Z,6.10
2019-05-06T22:43:55.413Z,6.00
2019-05-06T22:46:25.074Z,6.00
2019-05-06T22:48:54.861Z,6.10
2019-05-06T22:51:25.103Z,6.00
2019-05-06T22:53:54.632Z,6.00
2019-05-06T22:56:24.412Z,6.00
2019-05-06T22:58:54.093Z,6.00
2019-05-06T23:01:25.329Z,6.00
2019-05-06T23:03:55.437Z,6.00
2019-05-06T23:06:25.128Z,6.00
2019-05-06T23:08:54.728Z,6.00
2019-05-06T23:11:24.448Z,6.00
2019-05-06T23:13:54.145Z,6.10
2019-05-06T23:16:24.076Z,6.10
2019-05-06T23:18:53.687Z,6.10
2019-05-06T23:21:23.426Z,6.20
2019-05-06T23:23:54.704Z,6.20
2019-05-06T23:26:24.882Z,6.20
2019-05-06T23:28:54.576Z,6.20
2019-05-06T23:31:24.598Z,6.20
2019-05-06T23:33:54.385Z,6.10
2019-05-06T23:36:24.014Z,6.20
2019-05-06T23:39:49.516Z,6.10
2019-05-06T23:43:13.201Z,6.20
2019-05-06T23:46:37.193Z,6.20
2019-05-06T23:50:03.382Z,6.10
2019-05-06T23:53:26.342Z,6.00
2019-05-06T23:56:43.355Z,6.00
2019-05-06T23:59:18.123Z,6.00
